Enter the Airport ICAO Code

Search by Airport or City

Current Weather

KSEA | Seattle–Tacoma International Airport

Seattle, Washington, United States

Last Update 56 Minutes Ago

Partly Cloudy Sky

Temperature of 13 ºC

Light to Moderate Winds from North

Temperature

13 ºC

Dew Point Temperature

08 ºC

Relative Humidity

71.75 %

Wind Direction

North (020º, Without Significant Variations)

Wind Velocity

15 km/h (08 kt)

Gusts

None

Visibility

Greater than 10 Miles

Sea Level Pressure

30.14 inHg (Inches of Mercury)

Layers of Clouds

5% to 30% of Sky Covered from 2743 mts (9000 ft) Above Ground Level.

30% to 60% of Sky Covered from 7620 mts (25000 ft) Above Ground Level.

METAR KSEA 131153Z 02008KT 10SM FEW090 SCT250 13/08 A3014 RMK AO2 SLP213 T01280078 10172 20128 53001

Weather Forecast

KSEA | Seattle–Tacoma International Airport

Seattle, Washington, United States

Forecast valid for the next 29 Hours

From now on it is expected:

Clear Sky

Light to Moderate Winds from North

Maximum Temperature

No Data

Minimum Temperature

No Data

TAF KSEA 131120Z 1312/1418 36008KT P6SM SKC